createdAt,value
2022-11-01T00:02:08.697Z,56.93
2022-11-01T00:04:35.566Z,57.47
2022-11-01T00:07:02.443Z,54.37
2022-11-01T00:09:29.222Z,55.40
2022-11-01T00:11:56.164Z,53.77
2022-11-01T00:14:23.099Z,54.27
2022-11-01T00:16:50.703Z,52.37
2022-11-01T00:19:17.665Z,53.80
2022-11-01T00:21:44.502Z,52.17
2022-11-01T00:24:11.354Z,48.37
2022-11-01T00:26:38.164Z,53.87
2022-11-01T00:29:05.078Z,49.13
2022-11-01T00:31:32.296Z,52.77
2022-11-01T00:34:03.829Z,51.17
2022-11-01T00:36:30.692Z,54.40
2022-11-01T00:39:01.350Z,55.70
2022-11-01T00:41:28.493Z,52.90
2022-11-01T00:43:55.272Z,51.97
2022-11-01T00:46:22.089Z,48.77
2022-11-01T00:48:49.887Z,43.40
2022-11-01T00:51:16.689Z,50.43
2022-11-01T00:53:43.550Z,43.73
2022-11-01T00:56:10.377Z,48.73
2022-11-01T00:58:37.311Z,50.27
2022-11-01T01:01:04.240Z,49.83
2022-11-01T01:03:31.165Z,46.50
2022-11-01T01:05:58.442Z,41.73
2022-11-01T01:08:25.378Z,41.80
2022-11-01T01:10:52.554Z,42.93
2022-11-01T01:13:19.588Z,40.70
2022-11-01T01:15:48.496Z,43.07
2022-11-01T01:18:16.389Z,37.03
2022-11-01T01:20:44.058Z,43.03
2022-11-01T01:23:10.879Z,40.37
2022-11-01T01:25:42.195Z,32.43
2022-11-01T01:28:09.870Z,42.10
2022-11-01T01:30:40.680Z,45.07
2022-11-01T01:33:07.672Z,37.13
2022-11-01T01:35:42.216Z,36.00
2022-11-01T01:38:14.310Z,36.03
2022-11-01T01:40:41.297Z,36.60
2022-11-01T01:43:12.762Z,40.23
2022-11-01T01:45:41.389Z,33.60
2022-11-01T01:48:19.918Z,33.43
2022-11-01T01:50:59.709Z,31.37
2022-11-01T01:53:32.449Z,28.00
2022-11-01T01:56:09.456Z,29.83
2022-11-01T01:58:40.176Z,30.40
2022-11-01T02:01:07.514Z,28.87
2022-11-01T02:03:36.114Z,31.43
2022-11-01T02:06:17.275Z,24.90
2022-11-01T02:08:48.320Z,25.00
2022-11-01T02:11:16.813Z,25.40
2022-11-01T02:13:43.857Z,24.03
2022-11-01T02:16:25.597Z,24.63
2022-11-01T02:19:01.839Z,26.20
2022-11-01T02:21:40.807Z,25.07
2022-11-01T02:24:32.146Z,25.47
2022-11-01T02:27:25.814Z,28.50
2022-11-01T02:30:10.686Z,27.97
2022-11-01T02:33:03.264Z,29.87
2022-11-01T02:35:39.103Z,33.23
2022-11-01T02:38:34.952Z,36.07
2022-11-01T02:41:04.308Z,36.63
2022-11-01T02:43:45.817Z,43.70
2022-11-01T02:46:31.468Z,36.07
2022-11-01T02:48:59.354Z,33.93
2022-11-01T02:51:36.580Z,35.53
2022-11-01T02:54:08.133Z,39.40
2022-11-01T02:56:35.704Z,60.40
2022-11-01T02:59:02.548Z,47.80
2022-11-01T03:01:32.205Z,34.20
2022-11-01T03:03:59.964Z,36.90
2022-11-01T03:06:43.833Z,62.30
2022-11-01T03:09:12.173Z,33.77
2022-11-01T03:11:51.138Z,35.40
2022-11-01T03:14:34.207Z,37.10
2022-11-01T03:17:14.181Z,33.30
2022-11-01T03:19:51.841Z,40.73
2022-11-01T03:22:27.265Z,46.87
2022-11-01T03:25:40.891Z,32.13
2022-11-01T03:28:21.041Z,31.50
2022-11-01T03:30:59.699Z,32.77
2022-11-01T03:33:27.921Z,34.80
2022-11-01T03:36:01.827Z,32.40
2022-11-01T03:38:33.218Z,33.23
2022-11-01T03:41:06.514Z,32.10
2022-11-01T03:43:35.802Z,31.73
2022-11-01T03:46:02.788Z,37.60
2022-11-01T03:48:29.634Z,30.27
2022-11-01T03:50:57.155Z,37.03
2022-11-01T03:53:24.665Z,24.70
2022-11-01T03:55:51.549Z,25.57
2022-11-01T03:58:18.498Z,37.40
2022-11-01T04:00:46.506Z,25.10
2022-11-01T04:03:14.066Z,41.90
2022-11-01T04:05:42.492Z,31.23
2022-11-01T04:08:11.421Z,25.80
2022-11-01T04:10:40.617Z,24.50
2022-11-01T04:13:07.470Z,22.70
2022-11-01T04:15:52.944Z,31.60
2022-11-01T04:18:42.780Z,24.40
2022-11-01T04:21:16.175Z,22.33
2022-11-01T04:23:44.198Z,30.83
2022-11-01T04:26:13.516Z,25.33
2022-11-01T04:28:40.370Z,26.87
2022-11-01T04:31:07.714Z,40.13
2022-11-01T04:33:34.618Z,24.50
2022-11-01T04:36:06.086Z,30.00
2022-11-01T04:38:32.831Z,28.47
2022-11-01T04:41:00.157Z,23.53
2022-11-01T04:43:29.281Z,26.30
2022-11-01T04:45:57.256Z,26.47
2022-11-01T04:48:24.471Z,34.73
2022-11-01T04:50:51.299Z,30.53
2022-11-01T04:53:18.314Z,37.10
2022-11-01T04:55:45.531Z,29.83
2022-11-01T04:58:12.528Z,26.63
2022-11-01T05:00:39.475Z,32.07
2022-11-01T05:03:08.080Z,38.17
2022-11-01T05:05:35.689Z,39.20
2022-11-01T05:08:12.458Z,34.40
2022-11-01T05:10:44.293Z,44.70
2022-11-01T05:13:13.109Z,36.93
2022-11-01T05:15:53.221Z,34.43
2022-11-01T05:18:27.107Z,28.03
2022-11-01T05:20:53.970Z,37.87
2022-11-01T05:23:21.297Z,33.77
2022-11-01T05:25:48.253Z,36.77
2022-11-01T05:28:15.112Z,33.27
2022-11-01T05:30:43.291Z,31.77
2022-11-01T05:33:11.970Z,36.17
2022-11-01T05:35:38.914Z,42.77
2022-11-01T05:38:06.150Z,38.80
2022-11-01T05:40:33.504Z,39.83
2022-11-01T05:43:00.737Z,39.73
2022-11-01T05:45:27.866Z,32.17
2022-11-01T05:47:54.671Z,34.30
2022-11-01T05:50:21.558Z,41.13
2022-11-01T05:52:50.030Z,33.27
2022-11-01T05:55:17.019Z,42.77
2022-11-01T05:57:43.941Z,42.47
2022-11-01T06:00:11.891Z,41.80
2022-11-01T06:02:38.973Z,41.43
2022-11-01T06:05:06.170Z,35.93
2022-11-01T06:07:53.273Z,37.50
2022-11-01T06:10:20.108Z,52.90
2022-11-01T06:12:47.266Z,66.73
2022-11-01T06:15:14.447Z,37.67
2022-11-01T06:17:41.251Z,43.47
2022-11-01T06:20:13.503Z,41.43
2022-11-01T06:22:40.801Z,46.80
2022-11-01T06:25:19.565Z,38.33
2022-11-01T06:27:54.895Z,43.20
2022-11-01T06:30:30.981Z,35.00
2022-11-01T06:33:02.458Z,46.27
2022-11-01T06:35:37.344Z,38.13
2022-11-01T06:38:06.872Z,40.73
2022-11-01T06:40:37.655Z,44.20
2022-11-01T06:43:09.403Z,38.80
2022-11-01T06:45:36.221Z,37.33
2022-11-01T06:48:15.611Z,36.97
2022-11-01T06:50:45.241Z,36.70
2022-11-01T06:53:12.117Z,37.30
2022-11-01T06:55:45.191Z,38.87
2022-11-01T06:58:22.987Z,34.97
2022-11-01T07:00:52.315Z,38.27
2022-11-01T07:03:19.257Z,33.07
2022-11-01T07:05:48.271Z,33.67
2022-11-01T07:08:15.197Z,32.80
2022-11-01T07:10:43.295Z,33.00
2022-11-01T07:13:11.942Z,37.70
2022-11-01T07:15:39.184Z,50.43
2022-11-01T07:18:08.270Z,30.53
2022-11-01T07:20:41.608Z,33.43
2022-11-01T07:23:16.016Z,34.33
2022-11-01T07:28:24.734Z,36.70
2022-11-01T07:30:53.158Z,32.07
2022-11-01T07:33:20.974Z,34.47
2022-11-01T07:35:48.422Z,36.87
2022-11-01T07:38:16.130Z,31.70
2022-11-01T07:40:49.632Z,33.13
2022-11-01T07:43:20.223Z,30.87
2022-11-01T07:45:47.571Z,31.67
2022-11-01T07:48:20.627Z,32.10
2022-11-01T07:50:48.029Z,34.70
2022-11-01T07:53:18.998Z,30.27
2022-11-01T07:55:46.795Z,33.23
2022-11-01T07:58:15.587Z,31.87
2022-11-01T08:00:50.852Z,29.80
2022-11-01T08:03:26.328Z,36.13
2022-11-01T08:06:00.486Z,30.93
2022-11-01T08:08:27.494Z,35.80
2022-11-01T08:10:54.561Z,30.03
2022-11-01T08:23:54.201Z,30.90
2022-11-01T08:26:21.478Z,49.97
2022-11-01T08:28:48.684Z,53.97
2022-11-01T08:31:24.180Z,40.13
2022-11-01T08:33:51.287Z,40.17
2022-11-01T08:36:18.331Z,27.83
2022-11-01T08:38:45.156Z,28.13
2022-11-01T08:41:12.114Z,30.07
2022-11-01T08:43:40.665Z,28.63
2022-11-01T08:46:07.781Z,31.00
2022-11-01T08:48:34.716Z,29.27
2022-11-01T08:51:03.016Z,28.50
2022-11-01T08:53:29.794Z,28.30
2022-11-01T08:55:57.403Z,30.43
2022-11-01T08:58:24.983Z,27.60
2022-11-01T09:00:51.836Z,28.07
2022-11-01T09:03:18.689Z,30.50
2022-11-01T09:05:45.659Z,28.30
2022-11-01T09:08:15.667Z,30.90
2022-11-01T09:10:42.451Z,27.60
2022-11-01T09:13:09.371Z,29.17
2022-11-01T09:15:36.242Z,30.23
2022-11-01T09:18:09.438Z,34.43
2022-11-01T09:20:36.343Z,33.53
2022-11-01T09:23:06.529Z,30.90
2022-11-01T09:25:34.079Z,36.60
2022-11-01T09:28:01.055Z,32.03
2022-11-01T09:30:28.774Z,30.60
2022-11-01T09:33:05.908Z,32.70
2022-11-01T09:35:33.669Z,33.93
2022-11-01T09:38:01.722Z,34.50
2022-11-01T09:40:37.580Z,31.53
2022-11-01T09:43:08.967Z,30.90
2022-11-01T09:45:37.463Z,30.63
2022-11-01T09:48:06.701Z,31.60
2022-11-01T09:50:37.315Z,31.87
2022-11-01T10:02:54.210Z,34.27
2022-11-01T10:05:40.920Z,34.27
2022-11-01T10:08:29.562Z,33.60
2022-11-01T10:11:14.542Z,36.23
2022-11-01T10:13:48.282Z,36.23
2022-11-01T10:16:35.586Z,33.77
2022-11-01T10:19:06.078Z,36.13
2022-11-01T10:21:49.232Z,35.07
2022-11-01T10:24:43.099Z,34.73
2022-11-01T10:27:45.434Z,33.47
2022-11-01T10:30:23.197Z,37.57
2022-11-01T10:33:02.543Z,33.80
2022-11-01T10:35:37.403Z,32.30
2022-11-01T10:38:30.134Z,32.03
2022-11-01T10:41:09.689Z,30.03
2022-11-01T10:43:42.150Z,30.93
2022-11-01T10:46:13.447Z,34.57
2022-11-01T10:48:48.542Z,39.37
2022-11-01T10:51:19.661Z,40.07
2022-11-01T10:54:26.602Z,38.87
2022-11-01T10:56:58.792Z,37.33
2022-11-01T10:59:33.905Z,39.57
2022-11-01T11:02:02.138Z,37.83
2022-11-01T11:04:39.280Z,35.73
2022-11-01T11:07:39.119Z,37.00
2022-11-01T11:10:38.569Z,38.17
2022-11-01T11:13:08.486Z,36.97
2022-11-01T11:15:50.855Z,36.77
2022-11-01T11:18:38.640Z,39.20
2022-11-01T11:21:12.012Z,36.00
2022-11-01T11:23:58.240Z,34.80
2022-11-01T11:26:32.705Z,33.70
2022-11-01T11:29:03.099Z,37.57
2022-11-01T11:31:36.132Z,36.70
2022-11-01T11:34:15.172Z,38.77
2022-11-01T11:36:44.959Z,36.60
2022-11-01T11:39:37.552Z,36.17
2022-11-01T11:42:24.426Z,36.73
2022-11-01T11:44:56.939Z,44.83
2022-11-01T11:47:35.042Z,39.03
2022-11-01T11:50:25.187Z,39.30
2022-11-01T11:52:59.280Z,41.00
2022-11-01T11:56:10.714Z,42.33
2022-11-01T11:58:56.561Z,42.63
2022-11-01T12:05:26.706Z,41.30
2022-11-01T12:07:56.492Z,44.27
2022-11-01T12:10:37.156Z,44.33
2022-11-01T12:13:28.142Z,46.00
2022-11-01T12:16:08.822Z,43.37
2022-11-01T12:18:45.048Z,40.13
2022-11-01T12:21:19.496Z,42.10
2022-11-01T12:23:48.313Z,44.00
2022-11-01T12:26:17.484Z,45.60
2022-11-01T12:29:10.102Z,39.53
2022-11-01T12:31:41.383Z,41.17
2022-11-01T12:34:17.105Z,44.47
2022-11-01T12:36:52.680Z,42.43
2022-11-01T12:39:40.311Z,44.03
2022-11-01T12:42:12.133Z,41.20
2022-11-01T12:44:45.595Z,48.63
2022-11-01T12:47:31.714Z,41.20
2022-11-01T12:50:09.504Z,39.73
2022-11-01T12:52:47.595Z,44.57
2022-11-01T12:55:22.377Z,45.43
2022-11-01T13:01:01.473Z,53.63
2022-11-01T13:01:08.284Z,50.03
2022-11-01T13:03:50.678Z,53.17
2022-11-01T13:06:39.862Z,54.33
2022-11-01T13:09:12.589Z,49.03
2022-11-01T13:11:54.788Z,53.00
2022-11-01T13:14:48.742Z,49.93
2022-11-01T13:17:44.178Z,57.07
2022-11-01T13:20:22.283Z,49.73
2022-11-01T13:23:11.186Z,57.83
2022-11-01T13:26:04.064Z,64.97
2022-11-01T13:28:56.722Z,54.53
2022-11-01T13:31:34.468Z,53.80
2022-11-01T13:34:17.229Z,51.87
2022-11-01T13:37:08.977Z,66.03
2022-11-01T13:39:53.731Z,54.50
2022-11-01T13:42:31.162Z,50.93
2022-11-01T13:45:18.593Z,52.93
2022-11-01T13:48:06.718Z,62.53
2022-11-01T13:50:40.016Z,50.27
2022-11-01T13:53:26.750Z,55.83
2022-11-01T13:56:06.033Z,56.00
2022-11-01T13:58:33.431Z,58.27
2022-11-01T14:01:38.224Z,61.60
2022-11-01T14:04:14.294Z,55.37
2022-11-01T14:06:43.004Z,52.80
2022-11-01T14:09:19.636Z,67.13
2022-11-01T14:11:51.667Z,51.43
2022-11-01T14:14:30.834Z,53.63
2022-11-01T14:17:16.602Z,59.60
2022-11-01T14:19:47.506Z,56.17
2022-11-01T14:22:26.305Z,50.13
2022-11-01T14:24:58.798Z,58.73
2022-11-01T14:27:28.416Z,53.00
2022-11-01T14:29:56.514Z,53.20
2022-11-01T14:32:26.780Z,55.07
2022-11-01T14:35:23.774Z,52.27
2022-11-01T14:37:53.502Z,53.07
2022-11-01T14:40:43.517Z,54.10
2022-11-01T14:43:31.007Z,56.47
2022-11-01T14:46:03.454Z,56.53
2022-11-01T14:48:50.630Z,49.33
2022-11-01T14:51:30.299Z,48.83
2022-11-01T14:54:15.740Z,52.43
2022-11-01T14:56:49.694Z,53.00
2022-11-01T14:59:24.012Z,52.23
2022-11-01T15:02:03.014Z,52.77
2022-11-01T15:04:55.874Z,59.77
2022-11-01T15:07:27.851Z,67.40
2022-11-01T15:10:00.317Z,56.63
2022-11-01T15:12:33.652Z,60.87
2022-11-01T15:15:01.437Z,60.13
2022-11-01T15:17:31.182Z,61.87
2022-11-01T15:19:59.796Z,63.60
2022-11-01T15:22:29.559Z,61.23
2022-11-01T15:25:01.733Z,60.03
2022-11-01T15:27:37.149Z,64.57
2022-11-01T15:30:05.115Z,67.60
2022-11-01T15:32:34.651Z,62.40
2022-11-01T15:35:06.069Z,69.03
2022-11-01T15:37:33.640Z,68.40
2022-11-01T15:40:33.242Z,77.70
2022-11-01T15:43:02.180Z,60.30
2022-11-01T15:45:32.500Z,61.40
2022-11-01T15:48:06.074Z,56.37
2022-11-01T15:50:36.566Z,60.37
2022-11-01T15:53:09.817Z,54.17
2022-11-01T15:55:43.376Z,59.47
2022-11-01T15:58:27.457Z,53.97
2022-11-01T16:01:06.328Z,50.80
2022-11-01T16:03:49.699Z,67.40
2022-11-01T16:06:21.669Z,54.07
2022-11-01T16:08:55.033Z,56.27
2022-11-01T16:11:25.603Z,61.67
2022-11-01T16:14:02.352Z,57.30
2022-11-01T16:17:05.293Z,62.77
2022-11-01T16:19:47.779Z,59.03
2022-11-01T16:22:42.265Z,56.90
2022-11-01T16:25:11.804Z,51.17
2022-11-01T16:30:50.774Z,57.30
2022-11-01T16:33:28.545Z,58.73
2022-11-01T16:36:04.437Z,58.70
2022-11-01T16:38:35.439Z,63.63
2022-11-01T16:41:27.111Z,62.47
2022-11-01T16:43:56.403Z,64.03
2022-11-01T16:46:25.075Z,64.27
2022-11-01T16:48:51.978Z,67.53
2022-11-01T16:51:20.016Z,62.83
2022-11-01T16:53:47.166Z,73.90
2022-11-01T16:59:32.021Z,67.07
2022-11-01T17:02:00.142Z,67.47
2022-11-01T17:04:28.521Z,65.37
2022-11-01T17:06:58.288Z,63.70
2022-11-01T17:09:28.896Z,69.30
2022-11-01T17:11:56.251Z,70.73
2022-11-01T17:14:23.397Z,74.03
2022-11-01T17:16:52.318Z,71.93
2022-11-01T17:19:28.682Z,62.13
2022-11-01T17:21:57.700Z,66.90
2022-11-01T17:24:27.688Z,78.00
2022-11-01T17:26:58.198Z,87.00
2022-11-01T17:29:26.280Z,80.43
2022-11-01T17:31:53.575Z,77.47
2022-11-01T17:37:01.177Z,86.10
2022-11-01T17:39:29.440Z,84.37
2022-11-01T17:41:57.469Z,79.13
2022-11-01T17:44:24.604Z,88.37
2022-11-01T17:46:51.522Z,84.73
2022-11-01T17:49:22.006Z,78.27
2022-11-01T17:51:54.217Z,84.93
2022-11-01T17:54:22.801Z,92.10
2022-11-01T17:56:51.473Z,73.87
2022-11-01T17:59:18.980Z,88.07
2022-11-01T18:01:48.687Z,77.83
2022-11-01T18:04:16.622Z,80.87
2022-11-01T18:12:59.823Z,72.03
2022-11-01T18:15:39.297Z,70.23
2022-11-01T18:18:25.155Z,70.23
2022-11-01T18:26:41.657Z,99.70
2022-11-01T18:29:55.441Z,81.47
2022-11-01T19:15:25.425Z,81.17
2022-11-01T19:18:05.828Z,78.87
2022-11-01T19:20:39.113Z,91.23
2022-11-01T19:23:28.931Z,99.23
2022-11-01T19:26:26.288Z,95.13
2022-11-01T19:28:56.877Z,85.73
2022-11-01T19:31:31.298Z,69.10
2022-11-01T19:34:03.535Z,75.67
2022-11-01T19:39:27.937Z,85.53
2022-11-01T19:42:00.729Z,89.60
2022-11-01T19:44:30.333Z,90.00
2022-11-01T19:47:32.621Z,84.30
2022-11-01T19:50:00.110Z,82.10
2022-11-01T19:52:36.858Z,89.97
2022-11-01T19:55:25.174Z,94.90
2022-11-01T19:57:52.475Z,86.93
2022-11-01T20:00:23.000Z,84.00
2022-11-01T20:02:55.045Z,87.47
2022-11-01T20:05:34.009Z,92.97
2022-11-01T20:08:23.703Z,87.63
2022-11-01T20:10:51.072Z,80.43
2022-11-01T20:13:18.742Z,89.60
2022-11-01T20:15:46.569Z,97.73
2022-11-01T20:18:14.051Z,87.13
2022-11-01T20:20:44.410Z,93.77
2022-11-01T20:23:27.192Z,97.87
2022-11-01T20:25:55.415Z,104.03
2022-11-01T20:28:22.538Z,100.23
2022-11-01T20:30:49.716Z,112.93
2022-11-01T20:33:16.995Z,110.23
2022-11-01T20:35:44.642Z,100.27
2022-11-01T20:38:12.071Z,114.50
2022-11-01T20:40:39.121Z,100.60
2022-11-01T20:43:07.313Z,112.03
2022-11-01T20:45:35.442Z,99.30
2022-11-01T20:48:03.986Z,108.87
2022-11-01T20:50:31.248Z,104.87
2022-11-01T20:52:58.497Z,108.37
2022-11-01T20:55:25.385Z,101.47
2022-11-01T20:57:52.407Z,107.10
2022-11-01T21:00:19.551Z,102.50
2022-11-01T21:02:47.175Z,101.80
2022-11-01T21:05:21.885Z,106.57
2022-11-01T21:07:49.417Z,97.60
2022-11-01T21:10:36.323Z,101.50
2022-11-01T21:13:29.464Z,102.77
2022-11-01T21:15:58.871Z,101.40
2022-11-01T21:18:33.737Z,108.37
2022-11-01T21:21:27.266Z,106.50
2022-11-01T21:23:54.237Z,102.83
2022-11-01T21:26:28.395Z,114.97
2022-11-01T21:29:02.358Z,106.60
2022-11-01T21:31:30.887Z,107.77
2022-11-01T21:34:35.729Z,113.60
2022-11-01T21:37:12.482Z,118.50
2022-11-01T21:39:39.424Z,117.97
2022-11-01T21:42:32.833Z,114.07
2022-11-01T21:45:00.180Z,124.27
2022-11-01T21:47:31.243Z,116.93
2022-11-01T21:49:58.533Z,115.73
2022-11-01T21:52:25.923Z,114.23
2022-11-01T21:54:53.216Z,120.80
2022-11-01T21:57:20.257Z,119.27
2022-11-01T21:59:47.447Z,115.77
2022-11-01T22:02:15.316Z,116.00
2022-11-01T22:04:42.675Z,118.70
2022-11-01T22:07:10.427Z,105.87
2022-11-01T22:09:38.000Z,94.87
2022-11-01T22:12:06.370Z,84.57
2022-11-01T22:14:33.505Z,77.80
2022-11-01T22:17:01.139Z,82.67
2022-11-01T22:19:28.008Z,83.10
2022-11-01T22:21:54.990Z,78.60
2022-11-01T22:24:23.905Z,94.90
2022-11-01T22:26:51.001Z,85.80
2022-11-01T22:29:20.940Z,80.47
2022-11-01T22:31:47.964Z,80.10
2022-11-01T22:34:17.380Z,80.03
2022-11-01T22:36:44.173Z,89.13
2022-11-01T22:39:18.937Z,87.63
2022-11-01T22:41:46.423Z,90.67
2022-11-01T22:44:16.854Z,81.57
2022-11-01T22:46:58.765Z,84.80
2022-11-01T22:49:47.812Z,90.30
2022-11-01T22:52:39.254Z,98.37
2022-11-01T22:55:12.677Z,96.27
2022-11-01T22:57:44.777Z,106.67
2022-11-01T23:00:27.347Z,95.93
2022-11-01T23:03:17.332Z,96.20
2022-11-01T23:05:44.119Z,100.33
2022-11-01T23:08:24.826Z,103.33
2022-11-01T23:10:53.002Z,105.90
2022-11-01T23:13:56.707Z,96.77
2022-11-01T23:16:34.854Z,93.77
2022-11-01T23:19:03.620Z,90.27
2022-11-01T23:21:30.515Z,89.63
2022-11-01T23:23:57.495Z,88.00
2022-11-01T23:26:24.885Z,79.63
2022-11-01T23:28:54.318Z,81.17
2022-11-01T23:31:21.291Z,82.47
2022-11-01T23:33:49.606Z,79.43
2022-11-01T23:36:33.468Z,78.40
2022-11-01T23:39:15.604Z,83.93
2022-11-01T23:41:49.465Z,87.93
2022-11-01T23:44:25.853Z,82.43
2022-11-01T23:46:53.067Z,78.33
2022-11-01T23:49:26.901Z,86.00
2022-11-01T23:51:53.764Z,78.47
2022-11-01T23:54:33.410Z,82.53
2022-11-01T23:57:00.246Z,76.13
2022-11-01T23:59:27.266Z,87.87
